sensor_id;sensor_type;location;lat;lon;timestamp;P1;durP1;ratioP1;P2;durP2;ratioP2
44850;SDS011;30583;48.714;9.386;2023-08-30T00:01:55;11.98;;;8.60;;
44850;SDS011;30583;48.714;9.386;2023-08-30T00:04:20;10.70;;;7.95;;
44850;SDS011;30583;48.714;9.386;2023-08-30T00:06:47;8.73;;;7.85;;
44850;SDS011;30583;48.714;9.386;2023-08-30T00:09:13;9.07;;;7.68;;
44850;SDS011;30583;48.714;9.386;2023-08-30T00:11:38;9.07;;;8.15;;
44850;SDS011;30583;48.714;9.386;2023-08-30T00:14:05;8.85;;;7.82;;
44850;SDS011;30583;48.714;9.386;2023-08-30T00:16:32;10.80;;;8.10;;
44850;SDS011;30583;48.714;9.386;2023-08-30T00:18:58;9.70;;;8.38;;
44850;SDS011;30583;48.714;9.386;2023-08-30T00:21:25;8.82;;;7.45;;
44850;SDS011;30583;48.714;9.386;2023-08-30T00:23:52;8.98;;;8.05;;
44850;SDS011;30583;48.714;9.386;2023-08-30T00:26:17;8.95;;;7.82;;
44850;SDS011;30583;48.714;9.386;2023-08-30T00:28:43;10.00;;;8.75;;
44850;SDS011;30583;48.714;9.386;2023-08-30T00:31:09;10.30;;;8.77;;
44850;SDS011;30583;48.714;9.386;2023-08-30T00:33:34;10.23;;;8.25;;
44850;SDS011;30583;48.714;9.386;2023-08-30T00:36:00;10.27;;;9.00;;
44850;SDS011;30583;48.714;9.386;2023-08-30T00:38:26;11.38;;;9.25;;
44850;SDS011;30583;48.714;9.386;2023-08-30T00:40:52;10.18;;;8.75;;
44850;SDS011;30583;48.714;9.386;2023-08-30T00:43:19;9.93;;;9.02;;
44850;SDS011;30583;48.714;9.386;2023-08-30T00:45:45;9.65;;;8.75;;
44850;SDS011;30583;48.714;9.386;2023-08-30T00:48:12;9.93;;;8.93;;
44850;SDS011;30583;48.714;9.386;2023-08-30T00:50:40;9.77;;;8.18;;
44850;SDS011;30583;48.714;9.386;2023-08-30T00:53:07;9.55;;;8.65;;
44850;SDS011;30583;48.714;9.386;2023-08-30T00:55:34;10.82;;;8.52;;
44850;SDS011;30583;48.714;9.386;2023-08-30T00:58:00;9.55;;;8.57;;
44850;SDS011;30583;48.714;9.386;2023-08-30T01:00:27;9.60;;;8.70;;
44850;SDS011;30583;48.714;9.386;2023-08-30T01:02:54;10.75;;;7.85;;
44850;SDS011;30583;48.714;9.386;2023-08-30T01:05:20;9.90;;;8.60;;
44850;SDS011;30583;48.714;9.386;2023-08-30T01:07:46;9.10;;;8.20;;
44850;SDS011;30583;48.714;9.386;2023-08-30T01:10:12;11.85;;;9.35;;
44850;SDS011;30583;48.714;9.386;2023-08-30T01:12:40;9.60;;;8.60;;
44850;SDS011;30583;48.714;9.386;2023-08-30T01:15:12;13.20;;;9.88;;
44850;SDS011;30583;48.714;9.386;2023-08-30T01:17:41;11.02;;;9.75;;
44850;SDS011;30583;48.714;9.386;2023-08-30T01:20:10;12.18;;;10.35;;
44850;SDS011;30583;48.714;9.386;2023-08-30T01:28:07;12.65;;;10.85;;
44850;SDS011;30583;48.714;9.386;2023-08-30T01:30:35;14.63;;;10.63;;
44850;SDS011;30583;48.714;9.386;2023-08-30T01:33:04;12.15;;;10.75;;
44850;SDS011;30583;48.714;9.386;2023-08-30T01:35:30;11.95;;;10.75;;
44850;SDS011;30583;48.714;9.386;2023-08-30T01:38:02;15.70;;;10.98;;
44850;SDS011;30583;48.714;9.386;2023-08-30T01:40:32;13.38;;;10.85;;
44850;SDS011;30583;48.714;9.386;2023-08-30T01:43:00;11.60;;;10.40;;
44850;SDS011;30583;48.714;9.386;2023-08-30T01:45:29;12.32;;;10.93;;
44850;SDS011;30583;48.714;9.386;2023-08-30T01:47:55;12.18;;;10.55;;
44850;SDS011;30583;48.714;9.386;2023-08-30T01:50:22;12.90;;;10.77;;
44850;SDS011;30583;48.714;9.386;2023-08-30T01:52:48;14.13;;;10.30;;
44850;SDS011;30583;48.714;9.386;2023-08-30T01:55:15;13.35;;;10.30;;
44850;SDS011;30583;48.714;9.386;2023-08-30T01:57:43;11.52;;;10.32;;
44850;SDS011;30583;48.714;9.386;2023-08-30T02:00:08;11.45;;;10.30;;
44850;SDS011;30583;48.714;9.386;2023-08-30T02:02:35;11.85;;;9.60;;
44850;SDS011;30583;48.714;9.386;2023-08-30T02:05:01;11.50;;;9.90;;
44850;SDS011;30583;48.714;9.386;2023-08-30T02:07:33;10.73;;;9.60;;
44850;SDS011;30583;48.714;9.386;2023-08-30T02:12:42;10.95;;;9.85;;
44850;SDS011;30583;48.714;9.386;2023-08-30T02:15:12;11.02;;;9.55;;
44850;SDS011;30583;48.714;9.386;2023-08-30T02:17:39;11.85;;;8.80;;
44850;SDS011;30583;48.714;9.386;2023-08-30T02:20:05;10.75;;;9.50;;
44850;SDS011;30583;48.714;9.386;2023-08-30T02:22:32;10.95;;;8.82;;
44850;SDS011;30583;48.714;9.386;2023-08-30T02:24:58;10.40;;;9.07;;
44850;SDS011;30583;48.714;9.386;2023-08-30T02:27:24;9.55;;;8.55;;
44850;SDS011;30583;48.714;9.386;2023-08-30T02:29:50;10.05;;;9.05;;
44850;SDS011;30583;48.714;9.386;2023-08-30T02:32:15;10.07;;;9.07;;
44850;SDS011;30583;48.714;9.386;2023-08-30T02:34:45;9.75;;;8.60;;
44850;SDS011;30583;48.714;9.386;2023-08-30T02:37:14;9.80;;;8.80;;
44850;SDS011;30583;48.714;9.386;2023-08-30T02:39:40;10.05;;;8.68;;
44850;SDS011;30583;48.714;9.386;2023-08-30T02:42:06;9.73;;;8.73;;
44850;SDS011;30583;48.714;9.386;2023-08-30T02:44:31;11.32;;;8.55;;
44850;SDS011;30583;48.714;9.386;2023-08-30T02:46:57;10.35;;;9.23;;
44850;SDS011;30583;48.714;9.386;2023-08-30T02:49:22;10.43;;;9.30;;
44850;SDS011;30583;48.714;9.386;2023-08-30T02:51:48;10.40;;;9.30;;
44850;SDS011;30583;48.714;9.386;2023-08-30T02:54:13;10.18;;;9.00;;
44850;SDS011;30583;48.714;9.386;2023-08-30T02:56:40;10.68;;;9.43;;
44850;SDS011;30583;48.714;9.386;2023-08-30T02:59:08;10.73;;;9.55;;
44850;SDS011;30583;48.714;9.386;2023-08-30T03:01:34;11.27;;;10.10;;
44850;SDS011;30583;48.714;9.386;2023-08-30T03:04:00;10.48;;;9.23;;
44850;SDS011;30583;48.714;9.386;2023-08-30T03:06:26;13.52;;;10.25;;
44850;SDS011;30583;48.714;9.386;2023-08-30T03:08:53;10.40;;;9.38;;
44850;SDS011;30583;48.714;9.386;2023-08-30T03:11:19;10.68;;;9.52;;
44850;SDS011;30583;48.714;9.386;2023-08-30T03:13:44;9.43;;;8.50;;
44850;SDS011;30583;48.714;9.386;2023-08-30T03:16:11;11.02;;;9.13;;
44850;SDS011;30583;48.714;9.386;2023-08-30T03:18:37;11.10;;;9.27;;
44850;SDS011;30583;48.714;9.386;2023-08-30T03:21:03;12.57;;;10.38;;
44850;SDS011;30583;48.714;9.386;2023-08-30T03:23:30;10.02;;;8.75;;
44850;SDS011;30583;48.714;9.386;2023-08-30T03:25:57;12.00;;;9.88;;
44850;SDS011;30583;48.714;9.386;2023-08-30T03:28:23;10.63;;;9.52;;
44850;SDS011;30583;48.714;9.386;2023-08-30T03:30:48;9.73;;;8.73;;
44850;SDS011;30583;48.714;9.386;2023-08-30T03:33:14;10.98;;;9.90;;
44850;SDS011;30583;48.714;9.386;2023-08-30T03:35:40;12.88;;;10.18;;
44850;SDS011;30583;48.714;9.386;2023-08-30T03:38:05;11.55;;;10.15;;
44850;SDS011;30583;48.714;9.386;2023-08-30T03:40:31;13.57;;;10.75;;
44850;SDS011;30583;48.714;9.386;2023-08-30T03:42:57;12.40;;;11.10;;
44850;SDS011;30583;48.714;9.386;2023-08-30T03:45:23;10.52;;;9.20;;
44850;SDS011;30583;48.714;9.386;2023-08-30T03:47:48;12.27;;;10.10;;
44850;SDS011;30583;48.714;9.386;2023-08-30T03:50:14;11.85;;;9.20;;
44850;SDS011;30583;48.714;9.386;2023-08-30T03:52:40;10.65;;;9.25;;
44850;SDS011;30583;48.714;9.386;2023-08-30T03:55:05;10.07;;;8.52;;
44850;SDS011;30583;48.714;9.386;2023-08-30T03:57:31;10.30;;;8.43;;
44850;SDS011;30583;48.714;9.386;2023-08-30T03:59:57;9.52;;;8.52;;
44850;SDS011;30583;48.714;9.386;2023-08-30T04:02:22;9.57;;;8.57;;
44850;SDS011;30583;48.714;9.386;2023-08-30T04:04:48;9.45;;;8.48;;
44850;SDS011;30583;48.714;9.386;2023-08-30T04:07:14;9.73;;;8.48;;
44850;SDS011;30583;48.714;9.386;2023-08-30T04:09:40;10.30;;;8.57;;
44850;SDS011;30583;48.714;9.386;2023-08-30T04:12:06;10.18;;;9.10;;
44850;SDS011;30583;48.714;9.386;2023-08-30T04:14:31;9.45;;;8.55;;
44850;SDS011;30583;48.714;9.386;2023-08-30T04:16:57;8.85;;;7.95;;
44850;SDS011;30583;48.714;9.386;2023-08-30T04:19:23;10.52;;;8.68;;
44850;SDS011;30583;48.714;9.386;2023-08-30T04:21:48;10.38;;;9.23;;
44850;SDS011;30583;48.714;9.386;2023-08-30T04:24:14;10.93;;;8.93;;
44850;SDS011;30583;48.714;9.386;2023-08-30T04:26:40;10.80;;;9.70;;
44850;SDS011;30583;48.714;9.386;2023-08-30T04:29:06;10.98;;;9.23;;
44850;SDS011;30583;48.714;9.386;2023-08-30T04:31:31;10.63;;;9.63;;
44850;SDS011;30583;48.714;9.386;2023-08-30T04:33:57;10.75;;;9.65;;
44850;SDS011;30583;48.714;9.386;2023-08-30T04:36:23;11.02;;;9.75;;
44850;SDS011;30583;48.714;9.386;2023-08-30T04:38:48;12.65;;;9.50;;
44850;SDS011;30583;48.714;9.386;2023-08-30T04:41:14;9.98;;;8.73;;
44850;SDS011;30583;48.714;9.386;2023-08-30T04:43:39;11.00;;;9.65;;
44850;SDS011;30583;48.714;9.386;2023-08-30T04:46:05;9.60;;;8.57;;
44850;SDS011;30583;48.714;9.386;2023-08-30T04:48:31;10.55;;;9.02;;
44850;SDS011;30583;48.714;9.386;2023-08-30T04:51:00;10.80;;;9.68;;
44850;SDS011;30583;48.714;9.386;2023-08-30T04:53:28;11.63;;;9.18;;
44850;SDS011;30583;48.714;9.386;2023-08-30T04:55:54;11.40;;;9.38;;
44850;SDS011;30583;48.714;9.386;2023-08-30T04:58:19;8.90;;;7.95;;
44850;SDS011;30583;48.714;9.386;2023-08-30T05:00:45;9.70;;;8.75;;
44850;SDS011;30583;48.714;9.386;2023-08-30T05:03:11;8.10;;;6.60;;
44850;SDS011;30583;48.714;9.386;2023-08-30T05:05:36;9.13;;;7.28;;
44850;SDS011;30583;48.714;9.386;2023-08-30T05:08:02;8.23;;;7.28;;
44850;SDS011;30583;48.714;9.386;2023-08-30T05:10:28;8.43;;;7.63;;
44850;SDS011;30583;48.714;9.386;2023-08-30T05:12:54;8.75;;;6.95;;
44850;SDS011;30583;48.714;9.386;2023-08-30T05:15:20;11.10;;;7.13;;
44850;SDS011;30583;48.714;9.386;2023-08-30T05:17:46;8.77;;;7.88;;
44850;SDS011;30583;48.714;9.386;2023-08-30T05:20:12;9.18;;;7.55;;
44850;SDS011;30583;48.714;9.386;2023-08-30T05:22:38;8.48;;;7.43;;
44850;SDS011;30583;48.714;9.386;2023-08-30T05:25:03;8.50;;;6.72;;
44850;SDS011;30583;48.714;9.386;2023-08-30T05:27:29;5.50;;;4.03;;
44850;SDS011;30583;48.714;9.386;2023-08-30T05:29:55;5.88;;;4.22;;
44850;SDS011;30583;48.714;9.386;2023-08-30T05:32:21;7.35;;;4.88;;
44850;SDS011;30583;48.714;9.386;2023-08-30T05:34:47;5.30;;;3.80;;
44850;SDS011;30583;48.714;9.386;2023-08-30T05:37:12;5.78;;;4.25;;
44850;SDS011;30583;48.714;9.386;2023-08-30T05:39:38;7.15;;;3.67;;
44850;SDS011;30583;48.714;9.386;2023-08-30T05:42:04;5.93;;;2.97;;
44850;SDS011;30583;48.714;9.386;2023-08-30T05:44:30;4.97;;;3.60;;
44850;SDS011;30583;48.714;9.386;2023-08-30T05:46:55;6.78;;;5.75;;
44850;SDS011;30583;48.714;9.386;2023-08-30T05:49:21;7.90;;;6.90;;
44850;SDS011;30583;48.714;9.386;2023-08-30T05:51:46;7.50;;;6.70;;
44850;SDS011;30583;48.714;9.386;2023-08-30T05:54:12;10.00;;;7.57;;
44850;SDS011;30583;48.714;9.386;2023-08-30T05:56:38;9.35;;;6.80;;
44850;SDS011;30583;48.714;9.386;2023-08-30T05:59:04;14.48;;;6.45;;
44850;SDS011;30583;48.714;9.386;2023-08-30T06:01:29;19.60;;;7.32;;
44850;SDS011;30583;48.714;9.386;2023-08-30T06:03:55;15.88;;;6.40;;
44850;SDS011;30583;48.714;9.386;2023-08-30T06:06:21;33.63;;;9.13;;
44850;SDS011;30583;48.714;9.386;2023-08-30T06:08:46;8.27;;;6.82;;
44850;SDS011;30583;48.714;9.386;2023-08-30T06:11:12;8.23;;;7.40;;
44850;SDS011;30583;48.714;9.386;2023-08-30T06:13:39;9.57;;;7.72;;
44850;SDS011;30583;48.714;9.386;2023-08-30T06:16:04;8.52;;;7.72;;
44850;SDS011;30583;48.714;9.386;2023-08-30T06:18:30;8.50;;;7.60;;
44850;SDS011;30583;48.714;9.386;2023-08-30T06:20:56;13.00;;;8.13;;
44850;SDS011;30583;48.714;9.386;2023-08-30T06:23:22;8.57;;;7.60;;
44850;SDS011;30583;48.714;9.386;2023-08-30T06:25:57;9.07;;;8.10;;
44850;SDS011;30583;48.714;9.386;2023-08-30T06:28:23;11.15;;;7.72;;
44850;SDS011;30583;48.714;9.386;2023-08-30T06:30:49;10.10;;;8.73;;
44850;SDS011;30583;48.714;9.386;2023-08-30T06:33:15;9.57;;;8.40;;
44850;SDS011;30583;48.714;9.386;2023-08-30T06:35:41;10.25;;;9.15;;
44850;SDS011;30583;48.714;9.386;2023-08-30T06:38:07;12.82;;;9.05;;
44850;SDS011;30583;48.714;9.386;2023-08-30T06:40:33;12.73;;;8.50;;
44850;SDS011;30583;48.714;9.386;2023-08-30T06:42:59;10.48;;;9.38;;
44850;SDS011;30583;48.714;9.386;2023-08-30T06:45:24;9.77;;;8.13;;
44850;SDS011;30583;48.714;9.386;2023-08-30T06:47:50;9.35;;;8.35;;
44850;SDS011;30583;48.714;9.386;2023-08-30T06:50:17;11.18;;;8.45;;
44850;SDS011;30583;48.714;9.386;2023-08-30T06:52:43;13.15;;;8.75;;
44850;SDS011;30583;48.714;9.386;2023-08-30T06:55:09;12.63;;;8.90;;
44850;SDS011;30583;48.714;9.386;2023-08-30T06:57:34;11.07;;;8.40;;
44850;SDS011;30583;48.714;9.386;2023-08-30T07:00:00;10.85;;;8.43;;
44850;SDS011;30583;48.714;9.386;2023-08-30T07:02:32;17.20;;;9.30;;
44850;SDS011;30583;48.714;9.386;2023-08-30T07:04:59;10.18;;;8.23;;
44850;SDS011;30583;48.714;9.386;2023-08-30T07:07:24;9.43;;;8.40;;
44850;SDS011;30583;48.714;9.386;2023-08-30T07:09:50;9.35;;;7.82;;
44850;SDS011;30583;48.714;9.386;2023-08-30T07:12:16;10.52;;;8.50;;
44850;SDS011;30583;48.714;9.386;2023-08-30T07:14:41;10.60;;;8.90;;
44850;SDS011;30583;48.714;9.386;2023-08-30T07:17:07;11.20;;;8.43;;
44850;SDS011;30583;48.714;9.386;2023-08-30T07:19:32;9.15;;;7.82;;
44850;SDS011;30583;48.714;9.386;2023-08-30T07:21:58;10.32;;;8.15;;
44850;SDS011;30583;48.714;9.386;2023-08-30T07:24:24;9.77;;;7.05;;
44850;SDS011;30583;48.714;9.386;2023-08-30T07:26:49;8.55;;;7.22;;
44850;SDS011;30583;48.714;9.386;2023-08-30T07:29:15;9.13;;;7.25;;
44850;SDS011;30583;48.714;9.386;2023-08-30T07:31:40;10.63;;;7.78;;
44850;SDS011;30583;48.714;9.386;2023-08-30T07:34:06;9.45;;;7.28;;
44850;SDS011;30583;48.714;9.386;2023-08-30T07:36:33;8.65;;;7.07;;
44850;SDS011;30583;48.714;9.386;2023-08-30T07:38:58;8.35;;;6.50;;
44850;SDS011;30583;48.714;9.386;2023-08-30T07:41:24;8.07;;;6.90;;
44850;SDS011;30583;48.714;9.386;2023-08-30T07:43:49;9.82;;;7.45;;
44850;SDS011;30583;48.714;9.386;2023-08-30T07:46:15;7.90;;;6.93;;
44850;SDS011;30583;48.714;9.386;2023-08-30T07:48:40;11.20;;;7.30;;
44850;SDS011;30583;48.714;9.386;2023-08-30T07:51:06;7.82;;;6.18;;
44850;SDS011;30583;48.714;9.386;2023-08-30T07:53:32;6.70;;;6.00;;
44850;SDS011;30583;48.714;9.386;2023-08-30T07:55:57;7.82;;;6.10;;
44850;SDS011;30583;48.714;9.386;2023-08-30T07:58:23;8.18;;;6.38;;
44850;SDS011;30583;48.714;9.386;2023-08-30T08:00:52;8.25;;;6.65;;
44850;SDS011;30583;48.714;9.386;2023-08-30T08:03:17;9.70;;;6.50;;
44850;SDS011;30583;48.714;9.386;2023-08-30T08:05:43;7.43;;;6.40;;
44850;SDS011;30583;48.714;9.386;2023-08-30T08:08:09;8.15;;;6.13;;
44850;SDS011;30583;48.714;9.386;2023-08-30T08:10:36;7.05;;;6.18;;
44850;SDS011;30583;48.714;9.386;2023-08-30T08:13:01;7.10;;;5.40;;
44850;SDS011;30583;48.714;9.386;2023-08-30T08:15:29;9.70;;;5.55;;
44850;SDS011;30583;48.714;9.386;2023-08-30T08:17:56;7.00;;;5.57;;
44850;SDS011;30583;48.714;9.386;2023-08-30T08:20:22;11.90;;;5.93;;
44850;SDS011;30583;48.714;9.386;2023-08-30T08:22:47;7.28;;;6.28;;
44850;SDS011;30583;48.714;9.386;2023-08-30T08:25:13;6.57;;;5.72;;
44850;SDS011;30583;48.714;9.386;2023-08-30T08:27:38;8.07;;;6.20;;
44850;SDS011;30583;48.714;9.386;2023-08-30T08:30:04;11.93;;;6.10;;
44850;SDS011;30583;48.714;9.386;2023-08-30T08:32:31;7.20;;;6.30;;
44850;SDS011;30583;48.714;9.386;2023-08-30T08:34:57;7.53;;;6.32;;
44850;SDS011;30583;48.714;9.386;2023-08-30T08:37:23;6.75;;;6.03;;
44850;SDS011;30583;48.714;9.386;2023-08-30T08:39:48;7.18;;;6.00;;
44850;SDS011;30583;48.714;9.386;2023-08-30T08:42:17;7.03;;;5.75;;
44850;SDS011;30583;48.714;9.386;2023-08-30T08:44:46;7.13;;;6.18;;
44850;SDS011;30583;48.714;9.386;2023-08-30T08:47:14;8.32;;;5.85;;
44850;SDS011;30583;48.714;9.386;2023-08-30T08:49:41;7.00;;;5.68;;
44850;SDS011;30583;48.714;9.386;2023-08-30T08:52:07;6.22;;;5.63;;
44850;SDS011;30583;48.714;9.386;2023-08-30T08:54:33;6.75;;;5.03;;
44850;SDS011;30583;48.714;9.386;2023-08-30T08:56:59;6.05;;;5.45;;
44850;SDS011;30583;48.714;9.386;2023-08-30T08:59:25;7.55;;;5.60;;
44850;SDS011;30583;48.714;9.386;2023-08-30T09:01:51;16.83;;;11.43;;
44850;SDS011;30583;48.714;9.386;2023-08-30T09:04:18;12.25;;;10.00;;
44850;SDS011;30583;48.714;9.386;2023-08-30T09:06:44;8.65;;;6.32;;
44850;SDS011;30583;48.714;9.386;2023-08-30T09:09:10;6.90;;;5.15;;
44850;SDS011;30583;48.714;9.386;2023-08-30T09:11:36;5.05;;;4.40;;
44850;SDS011;30583;48.714;9.386;2023-08-30T09:14:02;6.22;;;4.70;;
44850;SDS011;30583;48.714;9.386;2023-08-30T09:16:28;5.95;;;4.38;;
44850;SDS011;30583;48.714;9.386;2023-08-30T09:19:00;5.53;;;4.75;;
44850;SDS011;30583;48.714;9.386;2023-08-30T09:21:26;6.97;;;5.05;;
44850;SDS011;30583;48.714;9.386;2023-08-30T09:23:59;6.00;;;4.63;;
44850;SDS011;30583;48.714;9.386;2023-08-30T09:26:29;9.70;;;4.40;;
44850;SDS011;30583;48.714;9.386;2023-08-30T09:29:04;4.47;;;4.00;;
44850;SDS011;30583;48.714;9.386;2023-08-30T09:31:37;5.45;;;3.60;;
44850;SDS011;30583;48.714;9.386;2023-08-30T09:34:05;3.75;;;3.35;;
44850;SDS011;30583;48.714;9.386;2023-08-30T09:36:34;4.97;;;3.70;;
44850;SDS011;30583;48.714;9.386;2023-08-30T09:39:08;5.00;;;3.97;;
44850;SDS011;30583;48.714;9.386;2023-08-30T09:44:14;6.20;;;3.88;;
44850;SDS011;30583;48.714;9.386;2023-08-30T09:49:10;4.65;;;3.83;;
44850;SDS011;30583;48.714;9.386;2023-08-30T09:51:37;6.72;;;3.58;;
44850;SDS011;30583;48.714;9.386;2023-08-30T09:54:07;5.47;;;3.22;;
44850;SDS011;30583;48.714;9.386;2023-08-30T09:56:42;5.47;;;3.83;;
44850;SDS011;30583;48.714;9.386;2023-08-30T09:59:12;4.40;;;3.20;;
44850;SDS011;30583;48.714;9.386;2023-08-30T10:01:40;4.15;;;3.33;;
44850;SDS011;30583;48.714;9.386;2023-08-30T10:04:10;5.03;;;3.47;;
44850;SDS011;30583;48.714;9.386;2023-08-30T10:06:39;4.90;;;3.60;;
44850;SDS011;30583;48.714;9.386;2023-08-30T10:09:06;4.20;;;3.03;;
44850;SDS011;30583;48.714;9.386;2023-08-30T10:11:36;3.88;;;3.15;;
44850;SDS011;30583;48.714;9.386;2023-08-30T10:14:03;4.13;;;2.65;;
44850;SDS011;30583;48.714;9.386;2023-08-30T10:16:30;4.10;;;3.05;;
44850;SDS011;30583;48.714;9.386;2023-08-30T10:21:40;3.58;;;2.58;;
44850;SDS011;30583;48.714;9.386;2023-08-30T10:24:09;3.70;;;2.70;;
44850;SDS011;30583;48.714;9.386;2023-08-30T10:26:46;4.43;;;2.70;;
44850;SDS011;30583;48.714;9.386;2023-08-30T10:29:14;4.38;;;2.70;;
44850;SDS011;30583;48.714;9.386;2023-08-30T10:31:41;4.93;;;2.70;;
44850;SDS011;30583;48.714;9.386;2023-08-30T10:34:17;5.28;;;2.67;;
44850;SDS011;30583;48.714;9.386;2023-08-30T10:36:44;3.97;;;2.72;;
44850;SDS011;30583;48.714;9.386;2023-08-30T10:39:13;4.35;;;2.35;;
44850;SDS011;30583;48.714;9.386;2023-08-30T10:41:55;4.40;;;2.35;;
44850;SDS011;30583;48.714;9.386;2023-08-30T10:44:22;3.88;;;2.70;;
44850;SDS011;30583;48.714;9.386;2023-08-30T10:46:54;4.97;;;2.70;;
44850;SDS011;30583;48.714;9.386;2023-08-30T10:49:20;5.07;;;2.50;;
44850;SDS011;30583;48.714;9.386;2023-08-30T10:51:56;3.35;;;2.30;;
44850;SDS011;30583;48.714;9.386;2023-08-30T10:54:22;2.95;;;2.10;;
44850;SDS011;30583;48.714;9.386;2023-08-30T10:59:17;4.88;;;2.80;;
44850;SDS011;30583;48.714;9.386;2023-08-30T11:01:45;3.30;;;2.42;;
44850;SDS011;30583;48.714;9.386;2023-08-30T11:04:12;3.38;;;2.38;;
44850;SDS011;30583;48.714;9.386;2023-08-30T11:06:43;3.60;;;2.38;;
44850;SDS011;30583;48.714;9.386;2023-08-30T11:09:17;6.10;;;2.85;;
44850;SDS011;30583;48.714;9.386;2023-08-30T11:14:13;3.67;;;2.65;;
44850;SDS011;30583;48.714;9.386;2023-08-30T11:16:39;4.20;;;2.08;;
44850;SDS011;30583;48.714;9.386;2023-08-30T11:19:06;3.38;;;2.40;;
44850;SDS011;30583;48.714;9.386;2023-08-30T11:21:33;3.28;;;2.30;;
44850;SDS011;30583;48.714;9.386;2023-08-30T11:24:01;4.80;;;2.03;;
44850;SDS011;30583;48.714;9.386;2023-08-30T11:26:28;2.92;;;2.25;;
44850;SDS011;30583;48.714;9.386;2023-08-30T11:28:54;3.28;;;2.40;;
44850;SDS011;30583;48.714;9.386;2023-08-30T11:31:24;3.00;;;2.30;;
44850;SDS011;30583;48.714;9.386;2023-08-30T11:33:53;4.22;;;1.92;;
44850;SDS011;30583;48.714;9.386;2023-08-30T11:36:25;2.97;;;2.38;;
44850;SDS011;30583;48.714;9.386;2023-08-30T11:38:53;4.22;;;2.10;;
44850;SDS011;30583;48.714;9.386;2023-08-30T11:41:19;4.22;;;1.98;;
44850;SDS011;30583;48.714;9.386;2023-08-30T11:43:46;3.20;;;1.70;;
44850;SDS011;30583;48.714;9.386;2023-08-30T11:46:12;3.17;;;1.85;;
44850;SDS011;30583;48.714;9.386;2023-08-30T11:48:39;1.95;;;1.50;;
44850;SDS011;30583;48.714;9.386;2023-08-30T11:51:05;4.03;;;1.77;;
44850;SDS011;30583;48.714;9.386;2023-08-30T11:53:35;4.10;;;1.92;;
44850;SDS011;30583;48.714;9.386;2023-08-30T11:56:03;2.90;;;1.70;;
44850;SDS011;30583;48.714;9.386;2023-08-30T11:58:33;2.03;;;1.60;;
44850;SDS011;30583;48.714;9.386;2023-08-30T12:00:59;2.22;;;1.42;;
44850;SDS011;30583;48.714;9.386;2023-08-30T12:03:26;2.90;;;1.50;;
44850;SDS011;30583;48.714;9.386;2023-08-30T12:05:53;2.70;;;1.90;;
44850;SDS011;30583;48.714;9.386;2023-08-30T12:08:26;3.05;;;1.63;;
44850;SDS011;30583;48.714;9.386;2023-08-30T12:10:53;3.65;;;1.70;;
44850;SDS011;30583;48.714;9.386;2023-08-30T12:13:23;2.33;;;1.70;;
44850;SDS011;30583;48.714;9.386;2023-08-30T12:15:57;4.93;;;1.50;;
44850;SDS011;30583;48.714;9.386;2023-08-30T12:18:23;2.58;;;1.60;;
44850;SDS011;30583;48.714;9.386;2023-08-30T12:20:55;2.47;;;1.60;;
44850;SDS011;30583;48.714;9.386;2023-08-30T12:23:29;3.08;;;1.48;;
44850;SDS011;30583;48.714;9.386;2023-08-30T12:26:17;2.10;;;1.55;;
44850;SDS011;30583;48.714;9.386;2023-08-30T12:28:42;2.83;;;1.60;;
44850;SDS011;30583;48.714;9.386;2023-08-30T12:31:09;25.02;;;18.35;;
44850;SDS011;30583;48.714;9.386;2023-08-30T12:33:35;24.73;;;18.73;;
44850;SDS011;30583;48.714;9.386;2023-08-30T12:36:02;5.28;;;2.97;;
44850;SDS011;30583;48.714;9.386;2023-08-30T12:38:29;5.78;;;4.38;;
44850;SDS011;30583;48.714;9.386;2023-08-30T12:40:55;10.32;;;7.32;;
44850;SDS011;30583;48.714;9.386;2023-08-30T12:43:21;4.07;;;1.80;;
44850;SDS011;30583;48.714;9.386;2023-08-30T12:45:48;4.57;;;3.60;;
44850;SDS011;30583;48.714;9.386;2023-08-30T12:48:15;3.10;;;1.83;;
44850;SDS011;30583;48.714;9.386;2023-08-30T12:50:46;5.55;;;3.05;;
44850;SDS011;30583;48.714;9.386;2023-08-30T12:53:12;5.25;;;3.03;;
44850;SDS011;30583;48.714;9.386;2023-08-30T12:55:38;5.22;;;2.20;;
44850;SDS011;30583;48.714;9.386;2023-08-30T12:58:07;3.67;;;1.80;;
44850;SDS011;30583;48.714;9.386;2023-08-30T13:00:33;3.03;;;1.52;;
44850;SDS011;30583;48.714;9.386;2023-08-30T13:03:00;5.38;;;2.00;;
44850;SDS011;30583;48.714;9.386;2023-08-30T13:05:25;3.60;;;2.13;;
44850;SDS011;30583;48.714;9.386;2023-08-30T13:07:51;5.63;;;1.95;;
44850;SDS011;30583;48.714;9.386;2023-08-30T13:10:17;3.65;;;1.70;;
44850;SDS011;30583;48.714;9.386;2023-08-30T13:12:43;4.18;;;1.83;;
44850;SDS011;30583;48.714;9.386;2023-08-30T13:15:09;2.90;;;1.80;;
44850;SDS011;30583;48.714;9.386;2023-08-30T13:17:35;3.45;;;1.80;;
44850;SDS011;30583;48.714;9.386;2023-08-30T13:20:00;4.53;;;1.70;;
44850;SDS011;30583;48.714;9.386;2023-08-30T13:22:27;2.30;;;1.70;;
44850;SDS011;30583;48.714;9.386;2023-08-30T13:24:53;2.35;;;1.80;;
44850;SDS011;30583;48.714;9.386;2023-08-30T13:27:19;4.28;;;1.95;;
44850;SDS011;30583;48.714;9.386;2023-08-30T13:29:45;5.03;;;3.13;;
44850;SDS011;30583;48.714;9.386;2023-08-30T13:32:10;6.40;;;4.78;;
44850;SDS011;30583;48.714;9.386;2023-08-30T13:34:36;6.07;;;3.97;;
44850;SDS011;30583;48.714;9.386;2023-08-30T13:37:02;4.70;;;2.65;;
44850;SDS011;30583;48.714;9.386;2023-08-30T13:39:28;5.47;;;2.53;;
44850;SDS011;30583;48.714;9.386;2023-08-30T13:41:54;4.03;;;1.83;;
44850;SDS011;30583;48.714;9.386;2023-08-30T13:44:19;3.30;;;2.30;;
44850;SDS011;30583;48.714;9.386;2023-08-30T13:46:45;3.33;;;2.08;;
44850;SDS011;30583;48.714;9.386;2023-08-30T13:49:13;2.97;;;2.28;;
44850;SDS011;30583;48.714;9.386;2023-08-30T13:51:39;4.38;;;2.80;;
44850;SDS011;30583;48.714;9.386;2023-08-30T13:54:05;6.25;;;2.42;;
44850;SDS011;30583;48.714;9.386;2023-08-30T13:56:31;4.15;;;2.45;;
44850;SDS011;30583;48.714;9.386;2023-08-30T13:58:57;2.95;;;2.10;;
44850;SDS011;30583;48.714;9.386;2023-08-30T14:01:23;5.00;;;1.85;;
44850;SDS011;30583;48.714;9.386;2023-08-30T14:03:48;3.03;;;2.10;;
44850;SDS011;30583;48.714;9.386;2023-08-30T14:06:14;2.75;;;1.98;;
44850;SDS011;30583;48.714;9.386;2023-08-30T14:08:40;3.28;;;2.03;;
44850;SDS011;30583;48.714;9.386;2023-08-30T14:11:06;3.08;;;2.30;;
44850;SDS011;30583;48.714;9.386;2023-08-30T14:13:31;4.28;;;2.00;;
44850;SDS011;30583;48.714;9.386;2023-08-30T14:16:00;4.25;;;2.03;;
44850;SDS011;30583;48.714;9.386;2023-08-30T14:18:29;5.05;;;2.45;;
44850;SDS011;30583;48.714;9.386;2023-08-30T14:20:58;3.58;;;2.25;;
44850;SDS011;30583;48.714;9.386;2023-08-30T14:23:24;4.30;;;2.50;;
44850;SDS011;30583;48.714;9.386;2023-08-30T14:28:28;4.93;;;2.55;;
44850;SDS011;30583;48.714;9.386;2023-08-30T14:30:54;4.95;;;2.38;;
44850;SDS011;30583;48.714;9.386;2023-08-30T14:33:20;3.47;;;2.60;;
44850;SDS011;30583;48.714;9.386;2023-08-30T14:35:45;3.38;;;2.55;;
44850;SDS011;30583;48.714;9.386;2023-08-30T14:38:11;3.65;;;2.10;;
44850;SDS011;30583;48.714;9.386;2023-08-30T14:40:37;3.05;;;2.05;;
44850;SDS011;30583;48.714;9.386;2023-08-30T14:43:03;4.10;;;2.00;;
44850;SDS011;30583;48.714;9.386;2023-08-30T14:45:29;3.53;;;2.22;;
44850;SDS011;30583;48.714;9.386;2023-08-30T14:47:55;2.78;;;1.55;;
44850;SDS011;30583;48.714;9.386;2023-08-30T14:50:21;3.20;;;2.03;;
44850;SDS011;30583;48.714;9.386;2023-08-30T14:52:47;2.92;;;1.83;;
44850;SDS011;30583;48.714;9.386;2023-08-30T14:55:12;3.20;;;1.75;;
44850;SDS011;30583;48.714;9.386;2023-08-30T14:57:38;4.55;;;1.85;;
44850;SDS011;30583;48.714;9.386;2023-08-30T15:00:04;2.15;;;1.63;;
44850;SDS011;30583;48.714;9.386;2023-08-30T15:02:30;4.97;;;1.95;;
44850;SDS011;30583;48.714;9.386;2023-08-30T15:04:56;2.47;;;1.80;;